sensor_id;sensor_type;location;lat;lon;timestamp;P1;durP1;ratioP1;P2;durP2;ratioP2
19374;SDS011;9823;50.936;4.046;2022-10-04T00:00:46;30.83;;;14.83;;
19374;SDS011;9823;50.936;4.046;2022-10-04T00:03:22;28.40;;;14.30;;
19374;SDS011;9823;50.936;4.046;2022-10-04T00:05:54;26.20;;;15.23;;
19374;SDS011;9823;50.936;4.046;2022-10-04T00:08:23;29.57;;;15.13;;
19374;SDS011;9823;50.936;4.046;2022-10-04T00:11:01;27.30;;;14.87;;
19374;SDS011;9823;50.936;4.046;2022-10-04T00:13:31;37.37;;;14.73;;
19374;SDS011;9823;50.936;4.046;2022-10-04T00:15:59;29.80;;;15.27;;
19374;SDS011;9823;50.936;4.046;2022-10-04T00:18:27;25.10;;;14.80;;
19374;SDS011;9823;50.936;4.046;2022-10-04T00:20:55;27.17;;;15.90;;
19374;SDS011;9823;50.936;4.046;2022-10-04T00:25:51;29.07;;;14.37;;
19374;SDS011;9823;50.936;4.046;2022-10-04T00:33:36;33.57;;;16.57;;
19374;SDS011;9823;50.936;4.046;2022-10-04T00:44:17;27.43;;;15.53;;
19374;SDS011;9823;50.936;4.046;2022-10-04T00:46:45;30.73;;;16.27;;
19374;SDS011;9823;50.936;4.046;2022-10-04T00:49:14;29.60;;;16.37;;
19374;SDS011;9823;50.936;4.046;2022-10-04T00:54:21;33.37;;;16.50;;
19374;SDS011;9823;50.936;4.046;2022-10-04T00:56:51;29.77;;;16.50;;
19374;SDS011;9823;50.936;4.046;2022-10-04T01:01:54;30.93;;;15.13;;
19374;SDS011;9823;50.936;4.046;2022-10-04T01:04:32;30.13;;;15.80;;
19374;SDS011;9823;50.936;4.046;2022-10-04T01:07:03;26.93;;;15.03;;
19374;SDS011;9823;50.936;4.046;2022-10-04T01:09:31;27.60;;;15.93;;
19374;SDS011;9823;50.936;4.046;2022-10-04T01:12:02;33.30;;;16.33;;
19374;SDS011;9823;50.936;4.046;2022-10-04T01:14:43;32.27;;;16.23;;
19374;SDS011;9823;50.936;4.046;2022-10-04T01:17:20;28.87;;;16.17;;
19374;SDS011;9823;50.936;4.046;2022-10-04T01:19:50;30.03;;;15.50;;
19374;SDS011;9823;50.936;4.046;2022-10-04T01:25:06;31.83;;;15.67;;
19374;SDS011;9823;50.936;4.046;2022-10-04T01:27:40;31.40;;;15.87;;
19374;SDS011;9823;50.936;4.046;2022-10-04T01:30:14;35.30;;;15.67;;
19374;SDS011;9823;50.936;4.046;2022-10-04T01:32:43;30.27;;;16.03;;
19374;SDS011;9823;50.936;4.046;2022-10-04T01:35:10;33.47;;;16.63;;
19374;SDS011;9823;50.936;4.046;2022-10-04T01:37:39;34.63;;;17.10;;
19374;SDS011;9823;50.936;4.046;2022-10-04T01:40:08;35.33;;;15.63;;
19374;SDS011;9823;50.936;4.046;2022-10-04T01:47:42;30.13;;;16.00;;
19374;SDS011;9823;50.936;4.046;2022-10-04T01:50:16;28.30;;;15.97;;
19374;SDS011;9823;50.936;4.046;2022-10-04T01:52:46;27.47;;;16.23;;
19374;SDS011;9823;50.936;4.046;2022-10-04T01:57:47;30.70;;;15.97;;
19374;SDS011;9823;50.936;4.046;2022-10-04T02:00:14;33.27;;;16.97;;
19374;SDS011;9823;50.936;4.046;2022-10-04T02:05:08;37.33;;;17.77;;
19374;SDS011;9823;50.936;4.046;2022-10-04T02:07:35;30.90;;;16.87;;
19374;SDS011;9823;50.936;4.046;2022-10-04T02:10:03;32.23;;;17.77;;
19374;SDS011;9823;50.936;4.046;2022-10-04T02:12:31;42.07;;;18.40;;
19374;SDS011;9823;50.936;4.046;2022-10-04T02:14:59;37.10;;;17.00;;
19374;SDS011;9823;50.936;4.046;2022-10-04T02:17:30;38.27;;;18.33;;
19374;SDS011;9823;50.936;4.046;2022-10-04T02:20:00;40.83;;;19.27;;
19374;SDS011;9823;50.936;4.046;2022-10-04T02:22:26;36.17;;;17.40;;
19374;SDS011;9823;50.936;4.046;2022-10-04T02:24:54;39.87;;;17.67;;
19374;SDS011;9823;50.936;4.046;2022-10-04T02:27:26;37.87;;;18.17;;
19374;SDS011;9823;50.936;4.046;2022-10-04T02:29:59;39.63;;;17.97;;
19374;SDS011;9823;50.936;4.046;2022-10-04T02:32:28;33.57;;;17.70;;
19374;SDS011;9823;50.936;4.046;2022-10-04T02:35:13;37.10;;;17.30;;
19374;SDS011;9823;50.936;4.046;2022-10-04T02:37:40;37.43;;;18.67;;
19374;SDS011;9823;50.936;4.046;2022-10-04T02:42:39;41.00;;;18.87;;
19374;SDS011;9823;50.936;4.046;2022-10-04T02:45:17;34.53;;;17.77;;
19374;SDS011;9823;50.936;4.046;2022-10-04T02:47:46;39.77;;;18.27;;
19374;SDS011;9823;50.936;4.046;2022-10-04T02:50:20;32.73;;;18.33;;
19374;SDS011;9823;50.936;4.046;2022-10-04T02:52:51;39.17;;;18.70;;
19374;SDS011;9823;50.936;4.046;2022-10-04T02:55:22;35.13;;;18.80;;
19374;SDS011;9823;50.936;4.046;2022-10-04T02:57:50;35.27;;;18.83;;
19374;SDS011;9823;50.936;4.046;2022-10-04T03:00:18;40.50;;;19.43;;
19374;SDS011;9823;50.936;4.046;2022-10-04T03:05:32;36.77;;;19.80;;
19374;SDS011;9823;50.936;4.046;2022-10-04T03:07:58;36.97;;;19.37;;
19374;SDS011;9823;50.936;4.046;2022-10-04T03:10:25;34.90;;;18.80;;
19374;SDS011;9823;50.936;4.046;2022-10-04T03:12:51;35.47;;;19.50;;
19374;SDS011;9823;50.936;4.046;2022-10-04T03:15:17;37.77;;;21.07;;
19374;SDS011;9823;50.936;4.046;2022-10-04T03:17:46;35.00;;;19.63;;
19374;SDS011;9823;50.936;4.046;2022-10-04T03:20:14;42.97;;;21.27;;
19374;SDS011;9823;50.936;4.046;2022-10-04T03:22:45;40.93;;;20.43;;
19374;SDS011;9823;50.936;4.046;2022-10-04T03:25:14;46.23;;;21.67;;
19374;SDS011;9823;50.936;4.046;2022-10-04T03:27:42;39.60;;;20.27;;
19374;SDS011;9823;50.936;4.046;2022-10-04T03:30:12;38.73;;;20.30;;
19374;SDS011;9823;50.936;4.046;2022-10-04T03:32:38;40.30;;;20.33;;
19374;SDS011;9823;50.936;4.046;2022-10-04T03:35:06;43.20;;;19.87;;
19374;SDS011;9823;50.936;4.046;2022-10-04T03:37:38;47.10;;;21.67;;
19374;SDS011;9823;50.936;4.046;2022-10-04T03:40:07;40.30;;;19.63;;
19374;SDS011;9823;50.936;4.046;2022-10-04T03:42:36;36.43;;;19.83;;
19374;SDS011;9823;50.936;4.046;2022-10-04T03:45:05;41.20;;;21.27;;
19374;SDS011;9823;50.936;4.046;2022-10-04T03:47:33;45.67;;;20.27;;
19374;SDS011;9823;50.936;4.046;2022-10-04T03:50:02;42.67;;;20.13;;
19374;SDS011;9823;50.936;4.046;2022-10-04T03:52:30;38.17;;;20.10;;
19374;SDS011;9823;50.936;4.046;2022-10-04T03:54:59;39.47;;;20.10;;
19374;SDS011;9823;50.936;4.046;2022-10-04T03:57:31;45.23;;;21.37;;
19374;SDS011;9823;50.936;4.046;2022-10-04T03:59:57;41.37;;;21.73;;
19374;SDS011;9823;50.936;4.046;2022-10-04T04:02:42;52.03;;;20.47;;
19374;SDS011;9823;50.936;4.046;2022-10-04T04:05:18;45.47;;;19.53;;
19374;SDS011;9823;50.936;4.046;2022-10-04T04:07:45;37.27;;;18.97;;
19374;SDS011;9823;50.936;4.046;2022-10-04T04:10:16;39.70;;;19.70;;
19374;SDS011;9823;50.936;4.046;2022-10-04T04:12:48;36.23;;;19.17;;
19374;SDS011;9823;50.936;4.046;2022-10-04T04:15:18;41.53;;;19.23;;
19374;SDS011;9823;50.936;4.046;2022-10-04T04:17:44;41.50;;;19.37;;
19374;SDS011;9823;50.936;4.046;2022-10-04T04:20:16;40.63;;;19.67;;
19374;SDS011;9823;50.936;4.046;2022-10-04T04:22:42;37.47;;;20.17;;
19374;SDS011;9823;50.936;4.046;2022-10-04T04:25:11;41.33;;;20.00;;
19374;SDS011;9823;50.936;4.046;2022-10-04T04:27:39;42.77;;;20.30;;
19374;SDS011;9823;50.936;4.046;2022-10-04T04:30:06;47.23;;;20.67;;
19374;SDS011;9823;50.936;4.046;2022-10-04T04:32:36;38.20;;;19.23;;
19374;SDS011;9823;50.936;4.046;2022-10-04T04:35:20;43.17;;;19.70;;
19374;SDS011;9823;50.936;4.046;2022-10-04T04:38:00;39.00;;;18.23;;
19374;SDS011;9823;50.936;4.046;2022-10-04T04:40:26;46.17;;;19.80;;
19374;SDS011;9823;50.936;4.046;2022-10-04T04:42:56;38.27;;;19.80;;
19374;SDS011;9823;50.936;4.046;2022-10-04T04:45:23;43.97;;;19.20;;
19374;SDS011;9823;50.936;4.046;2022-10-04T04:47:53;43.07;;;19.90;;
19374;SDS011;9823;50.936;4.046;2022-10-04T04:50:35;42.67;;;20.50;;
19374;SDS011;9823;50.936;4.046;2022-10-04T04:56:06;43.33;;;19.23;;
19374;SDS011;9823;50.936;4.046;2022-10-04T04:58:34;48.37;;;18.87;;
19374;SDS011;9823;50.936;4.046;2022-10-04T05:02:00;44.77;;;19.57;;
19374;SDS011;9823;50.936;4.046;2022-10-04T05:04:37;47.27;;;19.43;;
19374;SDS011;9823;50.936;4.046;2022-10-04T05:06:46;43.43;;;19.07;;
19374;SDS011;9823;50.936;4.046;2022-10-04T05:09:24;35.13;;;18.17;;
19374;SDS011;9823;50.936;4.046;2022-10-04T05:11:51;47.67;;;18.47;;
19374;SDS011;9823;50.936;4.046;2022-10-04T05:14:18;45.40;;;19.33;;
19374;SDS011;9823;50.936;4.046;2022-10-04T05:19:15;43.70;;;17.70;;
19374;SDS011;9823;50.936;4.046;2022-10-04T05:21:45;40.00;;;18.27;;
19374;SDS011;9823;50.936;4.046;2022-10-04T05:24:31;42.77;;;17.43;;
19374;SDS011;9823;50.936;4.046;2022-10-04T05:27:03;36.27;;;16.93;;
19374;SDS011;9823;50.936;4.046;2022-10-04T05:29:31;39.03;;;16.63;;
19374;SDS011;9823;50.936;4.046;2022-10-04T05:32:04;45.80;;;17.70;;
19374;SDS011;9823;50.936;4.046;2022-10-04T05:34:35;37.53;;;17.67;;
19374;SDS011;9823;50.936;4.046;2022-10-04T05:42:18;52.97;;;18.27;;
19374;SDS011;9823;50.936;4.046;2022-10-04T05:47:11;41.33;;;17.67;;
19374;SDS011;9823;50.936;4.046;2022-10-04T05:49:44;36.07;;;16.87;;
19374;SDS011;9823;50.936;4.046;2022-10-04T05:52:14;43.07;;;17.83;;
19374;SDS011;9823;50.936;4.046;2022-10-04T05:54:42;33.80;;;17.17;;
19374;SDS011;9823;50.936;4.046;2022-10-04T06:00:09;34.83;;;16.23;;
19374;SDS011;9823;50.936;4.046;2022-10-04T06:05:17;34.90;;;16.83;;
19374;SDS011;9823;50.936;4.046;2022-10-04T06:16:10;39.70;;;16.83;;
19374;SDS011;9823;50.936;4.046;2022-10-04T06:21:23;35.63;;;16.17;;
19374;SDS011;9823;50.936;4.046;2022-10-04T06:26:22;39.00;;;16.50;;
19374;SDS011;9823;50.936;4.046;2022-10-04T06:28:55;38.23;;;16.63;;
19374;SDS011;9823;50.936;4.046;2022-10-04T06:31:36;33.77;;;15.27;;
19374;SDS011;9823;50.936;4.046;2022-10-04T06:34:24;39.43;;;15.93;;
19374;SDS011;9823;50.936;4.046;2022-10-04T06:42:34;38.70;;;15.70;;
19374;SDS011;9823;50.936;4.046;2022-10-04T06:55:58;33.83;;;16.43;;
19374;SDS011;9823;50.936;4.046;2022-10-04T07:01:33;35.20;;;16.63;;
19374;SDS011;9823;50.936;4.046;2022-10-04T07:06:49;45.03;;;17.30;;
19374;SDS011;9823;50.936;4.046;2022-10-04T07:09:18;47.80;;;16.87;;
19374;SDS011;9823;50.936;4.046;2022-10-04T07:11:56;46.27;;;18.37;;
19374;SDS011;9823;50.936;4.046;2022-10-04T07:14:27;39.30;;;16.53;;
19374;SDS011;9823;50.936;4.046;2022-10-04T07:17:02;54.83;;;18.90;;
19374;SDS011;9823;50.936;4.046;2022-10-04T07:19:45;44.43;;;19.00;;
19374;SDS011;9823;50.936;4.046;2022-10-04T07:24:46;35.80;;;17.10;;
19374;SDS011;9823;50.936;4.046;2022-10-04T07:27:18;37.27;;;17.13;;
19374;SDS011;9823;50.936;4.046;2022-10-04T07:29:46;48.97;;;17.57;;
19374;SDS011;9823;50.936;4.046;2022-10-04T07:32:21;39.20;;;17.27;;
19374;SDS011;9823;50.936;4.046;2022-10-04T07:37:14;48.77;;;18.67;;
19374;SDS011;9823;50.936;4.046;2022-10-04T07:44:42;36.73;;;17.17;;
19374;SDS011;9823;50.936;4.046;2022-10-04T07:47:22;41.67;;;17.23;;
19374;SDS011;9823;50.936;4.046;2022-10-04T07:50:19;41.40;;;17.00;;
19374;SDS011;9823;50.936;4.046;2022-10-04T07:55:25;33.63;;;16.73;;
19374;SDS011;9823;50.936;4.046;2022-10-04T07:57:59;27.30;;;14.13;;
19374;SDS011;9823;50.936;4.046;2022-10-04T08:00:30;30.97;;;14.57;;
19374;SDS011;9823;50.936;4.046;2022-10-04T08:05:47;29.73;;;12.97;;
19374;SDS011;9823;50.936;4.046;2022-10-04T08:08:28;23.03;;;12.93;;
19374;SDS011;9823;50.936;4.046;2022-10-04T08:15:57;24.17;;;10.87;;
19374;SDS011;9823;50.936;4.046;2022-10-04T08:18:41;26.73;;;11.47;;
19374;SDS011;9823;50.936;4.046;2022-10-04T08:21:18;25.17;;;10.43;;
19374;SDS011;9823;50.936;4.046;2022-10-04T08:39:33;23.03;;;10.97;;
19374;SDS011;9823;50.936;4.046;2022-10-04T08:55:08;23.83;;;11.13;;
19374;SDS011;9823;50.936;4.046;2022-10-04T09:00:08;23.00;;;11.80;;
19374;SDS011;9823;50.936;4.046;2022-10-04T09:10:42;21.83;;;11.83;;
19374;SDS011;9823;50.936;4.046;2022-10-04T09:13:16;21.37;;;11.37;;
19374;SDS011;9823;50.936;4.046;2022-10-04T09:15:52;22.37;;;10.90;;
19374;SDS011;9823;50.936;4.046;2022-10-04T09:18:21;27.93;;;11.47;;
19374;SDS011;9823;50.936;4.046;2022-10-04T09:20:54;22.77;;;11.00;;
19374;SDS011;9823;50.936;4.046;2022-10-04T09:28:16;18.80;;;10.00;;
19374;SDS011;9823;50.936;4.046;2022-10-04T09:33:24;20.13;;;9.77;;
19374;SDS011;9823;50.936;4.046;2022-10-04T10:09:50;21.97;;;8.90;;
19374;SDS011;9823;50.936;4.046;2022-10-04T10:12:51;18.87;;;8.10;;
19374;SDS011;9823;50.936;4.046;2022-10-04T10:37:16;10.37;;;6.40;;
19374;SDS011;9823;50.936;4.046;2022-10-04T10:40:06;16.27;;;7.60;;
19374;SDS011;9823;50.936;4.046;2022-10-04T10:53:11;11.73;;;6.03;;
19374;SDS011;9823;50.936;4.046;2022-10-04T10:56:04;16.07;;;6.30;;
19374;SDS011;9823;50.936;4.046;2022-10-04T11:30:24;15.07;;;6.60;;
19374;SDS011;9823;50.936;4.046;2022-10-04T11:43:15;13.33;;;6.00;;
19374;SDS011;9823;50.936;4.046;2022-10-04T11:51:24;14.30;;;6.13;;
19374;SDS011;9823;50.936;4.046;2022-10-04T12:20:20;10.90;;;5.17;;
19374;SDS011;9823;50.936;4.046;2022-10-04T12:28:03;8.70;;;4.90;;
19374;SDS011;9823;50.936;4.046;2022-10-04T12:31:21;17.33;;;5.73;;
19374;SDS011;9823;50.936;4.046;2022-10-04T12:33:25;8.63;;;4.77;;
19374;SDS011;9823;50.936;4.046;2022-10-04T12:36:40;11.00;;;5.00;;
19374;SDS011;9823;50.936;4.046;2022-10-04T12:44:10;13.17;;;5.73;;
19374;SDS011;9823;50.936;4.046;2022-10-04T12:49:14;17.53;;;6.07;;
19374;SDS011;9823;50.936;4.046;2022-10-04T12:54:27;11.60;;;6.07;;
19374;SDS011;9823;50.936;4.046;2022-10-04T13:04:54;12.30;;;5.40;;
19374;SDS011;9823;50.936;4.046;2022-10-04T13:15:40;11.83;;;5.03;;
19374;SDS011;9823;50.936;4.046;2022-10-04T13:20:59;12.90;;;4.73;;
19374;SDS011;9823;50.936;4.046;2022-10-04T13:31:38;8.93;;;4.70;;
19374;SDS011;9823;50.936;4.046;2022-10-04T13:34:30;11.03;;;4.77;;
19374;SDS011;9823;50.936;4.046;2022-10-04T13:39:59;8.27;;;4.43;;
19374;SDS011;9823;50.936;4.046;2022-10-04T13:45:07;12.80;;;4.77;;
19374;SDS011;9823;50.936;4.046;2022-10-04T13:47:45;10.20;;;4.50;;
19374;SDS011;9823;50.936;4.046;2022-10-04T13:50:28;13.93;;;4.53;;
19374;SDS011;9823;50.936;4.046;2022-10-04T13:55:53;9.17;;;4.03;;
19374;SDS011;9823;50.936;4.046;2022-10-04T14:04:03;7.47;;;3.33;;
19374;SDS011;9823;50.936;4.046;2022-10-04T14:06:36;11.90;;;4.17;;
19374;SDS011;9823;50.936;4.046;2022-10-04T14:11:37;11.17;;;3.90;;
19374;SDS011;9823;50.936;4.046;2022-10-04T14:14:21;12.53;;;4.33;;
19374;SDS011;9823;50.936;4.046;2022-10-04T14:53:33;5.20;;;3.27;;
19374;SDS011;9823;50.936;4.046;2022-10-04T15:01:23;8.53;;;3.50;;
19374;SDS011;9823;50.936;4.046;2022-10-04T15:03:59;10.27;;;3.60;;
19374;SDS011;9823;50.936;4.046;2022-10-04T15:06:37;9.93;;;3.40;;
19374;SDS011;9823;50.936;4.046;2022-10-04T15:11:59;5.47;;;3.30;;
19374;SDS011;9823;50.936;4.046;2022-10-04T15:21:45;10.77;;;3.10;;
19374;SDS011;9823;50.936;4.046;2022-10-04T15:26:49;10.60;;;3.57;;
19374;SDS011;9823;50.936;4.046;2022-10-04T15:29:31;7.00;;;3.60;;
19374;SDS011;9823;50.936;4.046;2022-10-04T15:34:37;6.87;;;3.70;;
19374;SDS011;9823;50.936;4.046;2022-10-04T15:37:08;5.17;;;3.00;;
19374;SDS011;9823;50.936;4.046;2022-10-04T15:42:12;10.23;;;3.50;;
19374;SDS011;9823;50.936;4.046;2022-10-04T15:45:25;6.27;;;3.50;;
19374;SDS011;9823;50.936;4.046;2022-10-04T15:50:51;6.23;;;4.17;;
19374;SDS011;9823;50.936;4.046;2022-10-04T16:06:54;9.97;;;4.13;;
19374;SDS011;9823;50.936;4.046;2022-10-04T16:09:34;9.10;;;3.80;;
19374;SDS011;9823;50.936;4.046;2022-10-04T16:22:38;8.70;;;4.17;;
19374;SDS011;9823;50.936;4.046;2022-10-04T16:30:32;13.67;;;5.20;;
19374;SDS011;9823;50.936;4.046;2022-10-04T16:40:55;8.70;;;4.07;;
19374;SDS011;9823;50.936;4.046;2022-10-04T16:43:26;10.17;;;4.30;;
19374;SDS011;9823;50.936;4.046;2022-10-04T16:46:09;11.60;;;4.63;;
19374;SDS011;9823;50.936;4.046;2022-10-04T16:48:45;8.13;;;4.30;;
19374;SDS011;9823;50.936;4.046;2022-10-04T16:56:25;11.80;;;5.03;;
19374;SDS011;9823;50.936;4.046;2022-10-04T17:06:33;8.37;;;5.20;;
19374;SDS011;9823;50.936;4.046;2022-10-04T17:09:13;11.57;;;5.20;;
19374;SDS011;9823;50.936;4.046;2022-10-04T17:11:43;9.17;;;4.80;;
19374;SDS011;9823;50.936;4.046;2022-10-04T17:16:59;13.53;;;5.27;;
19374;SDS011;9823;50.936;4.046;2022-10-04T17:19:34;15.07;;;5.07;;
19374;SDS011;9823;50.936;4.046;2022-10-04T17:22:26;11.17;;;5.00;;
19374;SDS011;9823;50.936;4.046;2022-10-04T17:25:02;9.00;;;5.13;;
19374;SDS011;9823;50.936;4.046;2022-10-04T17:27:52;10.83;;;5.33;;
19374;SDS011;9823;50.936;4.046;2022-10-04T17:30:23;9.90;;;5.70;;
19374;SDS011;9823;50.936;4.046;2022-10-04T17:32:58;14.50;;;5.50;;
19374;SDS011;9823;50.936;4.046;2022-10-04T17:38:12;14.67;;;5.73;;
19374;SDS011;9823;50.936;4.046;2022-10-04T17:43:33;9.47;;;5.70;;
19374;SDS011;9823;50.936;4.046;2022-10-04T17:46:17;14.10;;;6.20;;
19374;SDS011;9823;50.936;4.046;2022-10-04T17:49:01;15.07;;;6.23;;
19374;SDS011;9823;50.936;4.046;2022-10-04T17:51:49;13.17;;;6.23;;
19374;SDS011;9823;50.936;4.046;2022-10-04T17:57:23;11.47;;;6.40;;
19374;SDS011;9823;50.936;4.046;2022-10-04T17:59:55;13.23;;;7.10;;
19374;SDS011;9823;50.936;4.046;2022-10-04T18:02:26;11.87;;;6.43;;
19374;SDS011;9823;50.936;4.046;2022-10-04T18:04:55;15.07;;;7.07;;
19374;SDS011;9823;50.936;4.046;2022-10-04T18:07:36;11.73;;;6.80;;
19374;SDS011;9823;50.936;4.046;2022-10-04T18:10:25;10.53;;;7.23;;
19374;SDS011;9823;50.936;4.046;2022-10-04T18:15:41;12.37;;;6.90;;
19374;SDS011;9823;50.936;4.046;2022-10-04T18:18:16;15.87;;;7.03;;
19374;SDS011;9823;50.936;4.046;2022-10-04T18:23:28;15.90;;;6.73;;
19374;SDS011;9823;50.936;4.046;2022-10-04T18:26:00;16.03;;;8.00;;
19374;SDS011;9823;50.936;4.046;2022-10-04T18:28:26;12.33;;;7.13;;
19374;SDS011;9823;50.936;4.046;2022-10-04T18:31:00;12.70;;;7.40;;
19374;SDS011;9823;50.936;4.046;2022-10-04T18:33:30;11.50;;;7.10;;
19374;SDS011;9823;50.936;4.046;2022-10-04T18:36:20;14.43;;;7.30;;
19374;SDS011;9823;50.936;4.046;2022-10-04T18:41:53;14.87;;;7.70;;
19374;SDS011;9823;50.936;4.046;2022-10-04T18:44:22;14.03;;;7.27;;
19374;SDS011;9823;50.936;4.046;2022-10-04T18:46:53;12.23;;;6.73;;
19374;SDS011;9823;50.936;4.046;2022-10-04T18:49:20;13.30;;;7.43;;
19374;SDS011;9823;50.936;4.046;2022-10-04T18:59:38;13.40;;;6.97;;
19374;SDS011;9823;50.936;4.046;2022-10-04T19:07:32;13.90;;;6.50;;
19374;SDS011;9823;50.936;4.046;2022-10-04T19:20:27;12.83;;;7.37;;
19374;SDS011;9823;50.936;4.046;2022-10-04T19:25:35;12.97;;;7.97;;
19374;SDS011;9823;50.936;4.046;2022-10-04T19:28:17;13.97;;;7.93;;
19374;SDS011;9823;50.936;4.046;2022-10-04T19:30:53;11.73;;;7.50;;
19374;SDS011;9823;50.936;4.046;2022-10-04T19:33:34;15.23;;;7.20;;
19374;SDS011;9823;50.936;4.046;2022-10-04T19:36:08;12.90;;;7.47;;
19374;SDS011;9823;50.936;4.046;2022-10-04T19:43:54;12.10;;;7.43;;
19374;SDS011;9823;50.936;4.046;2022-10-04T19:46:32;19.33;;;8.03;;
19374;SDS011;9823;50.936;4.046;2022-10-04T19:49:06;14.47;;;7.97;;
19374;SDS011;9823;50.936;4.046;2022-10-04T19:54:09;14.33;;;7.93;;
19374;SDS011;9823;50.936;4.046;2022-10-04T19:56:39;14.13;;;7.63;;
19374;SDS011;9823;50.936;4.046;2022-10-04T19:59:17;16.53;;;8.37;;
19374;SDS011;9823;50.936;4.046;2022-10-04T20:01:45;14.20;;;8.53;;
19374;SDS011;9823;50.936;4.046;2022-10-04T20:04:14;16.57;;;8.43;;
19374;SDS011;9823;50.936;4.046;2022-10-04T20:06:59;15.30;;;9.03;;
19374;SDS011;9823;50.936;4.046;2022-10-04T20:11:57;15.53;;;8.90;;
19374;SDS011;9823;50.936;4.046;2022-10-04T20:21:46;13.10;;;7.53;;
19374;SDS011;9823;50.936;4.046;2022-10-04T20:24:17;15.07;;;7.67;;
19374;SDS011;9823;50.936;4.046;2022-10-04T20:26:45;13.47;;;7.60;;
19374;SDS011;9823;50.936;4.046;2022-10-04T20:34:33;17.83;;;8.03;;
19374;SDS011;9823;50.936;4.046;2022-10-04T20:37:01;13.10;;;7.53;;
19374;SDS011;9823;50.936;4.046;2022-10-04T20:40:10;12.80;;;8.00;;
19374;SDS011;9823;50.936;4.046;2022-10-04T20:44:56;14.53;;;8.07;;
19374;SDS011;9823;50.936;4.046;2022-10-04T20:49:53;15.97;;;8.50;;
19374;SDS011;9823;50.936;4.046;2022-10-04T20:52:31;13.80;;;7.80;;
19374;SDS011;9823;50.936;4.046;2022-10-04T20:54:58;14.23;;;7.70;;
19374;SDS011;9823;50.936;4.046;2022-10-04T20:57:25;15.67;;;7.87;;
19374;SDS011;9823;50.936;4.046;2022-10-04T20:59:56;21.77;;;8.17;;
19374;SDS011;9823;50.936;4.046;2022-10-04T21:02:27;13.50;;;7.60;;
19374;SDS011;9823;50.936;4.046;2022-10-04T21:05:10;16.50;;;8.10;;
19374;SDS011;9823;50.936;4.046;2022-10-04T21:07:39;12.87;;;8.23;;
19374;SDS011;9823;50.936;4.046;2022-10-04T21:10:06;11.73;;;7.20;;
19374;SDS011;9823;50.936;4.046;2022-10-04T21:12:39;11.73;;;8.13;;
19374;SDS011;9823;50.936;4.046;2022-10-04T21:17:40;13.57;;;8.03;;
19374;SDS011;9823;50.936;4.046;2022-10-04T21:20:12;14.57;;;8.30;;
19374;SDS011;9823;50.936;4.046;2022-10-04T21:22:41;13.57;;;7.50;;
19374;SDS011;9823;50.936;4.046;2022-10-04T21:27:51;11.43;;;7.37;;
19374;SDS011;9823;50.936;4.046;2022-10-04T21:30:17;15.57;;;7.97;;
19374;SDS011;9823;50.936;4.046;2022-10-04T21:32:44;13.87;;;7.77;;
19374;SDS011;9823;50.936;4.046;2022-10-04T21:35:10;13.30;;;7.87;;
19374;SDS011;9823;50.936;4.046;2022-10-04T21:37:37;13.60;;;8.03;;
19374;SDS011;9823;50.936;4.046;2022-10-04T21:40:03;15.83;;;7.60;;
19374;SDS011;9823;50.936;4.046;2022-10-04T21:42:30;13.17;;;7.90;;
19374;SDS011;9823;50.936;4.046;2022-10-04T21:44:56;15.57;;;7.80;;
19374;SDS011;9823;50.936;4.046;2022-10-04T21:47:22;15.47;;;8.03;;
19374;SDS011;9823;50.936;4.046;2022-10-04T21:49:50;14.97;;;8.23;;
19374;SDS011;9823;50.936;4.046;2022-10-04T21:52:19;15.13;;;8.53;;
19374;SDS011;9823;50.936;4.046;2022-10-04T21:54:45;14.10;;;8.50;;
19374;SDS011;9823;50.936;4.046;2022-10-04T21:57:11;13.83;;;8.20;;
19374;SDS011;9823;50.936;4.046;2022-10-04T21:59:44;13.77;;;8.27;;
19374;SDS011;9823;50.936;4.046;2022-10-04T22:02:11;12.07;;;8.00;;
19374;SDS011;9823;50.936;4.046;2022-10-04T22:04:37;14.37;;;8.77;;
19374;SDS011;9823;50.936;4.046;2022-10-04T22:07:04;16.00;;;8.37;;
19374;SDS011;9823;50.936;4.046;2022-10-04T22:09:34;11.37;;;7.67;;
19374;SDS011;9823;50.936;4.046;2022-10-04T22:12:00;13.53;;;8.33;;
19374;SDS011;9823;50.936;4.046;2022-10-04T22:14:26;13.27;;;7.17;;
19374;SDS011;9823;50.936;4.046;2022-10-04T22:16:52;12.37;;;7.50;;
19374;SDS011;9823;50.936;4.046;2022-10-04T22:19:20;13.30;;;7.47;;
19374;SDS011;9823;50.936;4.046;2022-10-04T22:21:49;12.10;;;7.27;;
19374;SDS011;9823;50.936;4.046;2022-10-04T22:24:15;10.80;;;6.93;;
19374;SDS011;9823;50.936;4.046;2022-10-04T22:26:44;13.03;;;7.77;;
19374;SDS011;9823;50.936;4.046;2022-10-04T22:29:16;12.70;;;7.50;;
19374;SDS011;9823;50.936;4.046;2022-10-04T22:31:48;10.73;;;7.43;;
19374;SDS011;9823;50.936;4.046;2022-10-04T22:34:15;11.70;;;7.30;;
19374;SDS011;9823;50.936;4.046;2022-10-04T22:36:41;13.53;;;6.90;;
19374;SDS011;9823;50.936;4.046;2022-10-04T22:39:12;12.67;;;7.03;;
19374;SDS011;9823;50.936;4.046;2022-10-04T22:41:40;11.17;;;7.23;;
19374;SDS011;9823;50.936;4.046;2022-10-04T22:44:14;12.97;;;7.10;;
19374;SDS011;9823;50.936;4.046;2022-10-04T22:46:44;13.57;;;6.90;;
19374;SDS011;9823;50.936;4.046;2022-10-04T22:49:11;13.23;;;7.33;;
19374;SDS011;9823;50.936;4.046;2022-10-04T22:51:38;11.00;;;6.87;;
19374;SDS011;9823;50.936;4.046;2022-10-04T22:54:10;13.97;;;7.57;;
19374;SDS011;9823;50.936;4.046;2022-10-04T22:56:37;14.30;;;7.77;;
19374;SDS011;9823;50.936;4.046;2022-10-04T22:59:03;13.90;;;7.27;;
19374;SDS011;9823;50.936;4.046;2022-10-04T23:01:29;13.17;;;7.50;;
19374;SDS011;9823;50.936;4.046;2022-10-04T23:04:01;12.17;;;7.20;;
19374;SDS011;9823;50.936;4.046;2022-10-04T23:06:27;14.57;;;7.50;;
19374;SDS011;9823;50.936;4.046;2022-10-04T23:08:55;11.73;;;7.27;;
19374;SDS011;9823;50.936;4.046;2022-10-04T23:11:23;11.23;;;6.57;;
19374;SDS011;9823;50.936;4.046;2022-10-04T23:13:49;14.77;;;7.07;;
19374;SDS011;9823;50.936;4.046;2022-10-04T23:16:16;15.30;;;7.33;;
19374;SDS011;9823;50.936;4.046;2022-10-04T23:18:45;10.40;;;6.60;;
19374;SDS011;9823;50.936;4.046;2022-10-04T23:21:15;15.83;;;8.33;;
19374;SDS011;9823;50.936;4.046;2022-10-04T23:23:43;12.90;;;7.00;;
19374;SDS011;9823;50.936;4.046;2022-10-04T23:26:21;14.23;;;7.93;;
19374;SDS011;9823;50.936;4.046;2022-10-04T23:28:47;11.73;;;7.73;;
19374;SDS011;9823;50.936;4.046;2022-10-04T23:31:18;13.83;;;7.87;;
19374;SDS011;9823;50.936;4.046;2022-10-04T23:33:45;13.07;;;7.37;;
19374;SDS011;9823;50.936;4.046;2022-10-04T23:36:13;12.43;;;7.77;;
19374;SDS011;9823;50.936;4.046;2022-10-04T23:38:46;16.17;;;7.37;;
19374;SDS011;9823;50.936;4.046;2022-10-04T23:41:15;14.83;;;7.83;;
19374;SDS011;9823;50.936;4.046;2022-10-04T23:43:51;14.67;;;7.40;;
19374;SDS011;9823;50.936;4.046;2022-10-04T23:46:19;12.80;;;7.47;;
19374;SDS011;9823;50.936;4.046;2022-10-04T23:48:46;14.00;;;8.10;;
19374;SDS011;9823;50.936;4.046;2022-10-04T23:51:17;14.97;;;8.17;;
19374;SDS011;9823;50.936;4.046;2022-10-04T23:53:44;14.70;;;7.27;;
19374;SDS011;9823;50.936;4.046;2022-10-04T23:56:18;11.47;;;7.13;;
19374;SDS011;9823;50.936;4.046;2022-10-04T23:58:45;15.83;;;7.33;;
